Latest Weather Observations for Blackall

IDQ60801

Issued at 12:05 pm EST Sunday 31 August 2014 (issued every 30 minutes, with the page automatically refreshed every 10 minutes)

About weather observations | Map of weather stations | Latest weather observations for QLD | Other Formats
Station Details ID: 036034 Name: BLACKALL AIRPORT Lat: -24.43 Lon: 145.43 Height: 281.3 m
Data from the previous 72 hours. | See also: Recent months at Blackall
Date/Time
EST
Temp
°C
App
Temp
°C
Dew
Point
Rel
Hum
%
Delta-T
°C
Wind Press
QNH
hPa
Press
MSL
hPa
Rain
since 9 am
mm
Dir
 
Spd
km/h
Gust
km/h
Spd
kts
Gust
kts
31/12:00pm 25.0 21.4 -3.4 15 12.4 N 6 11 3 6 1018.8 1018.3 0.0
31/11:30am 24.2 20.4 -4.0 15 12.1 SSW 7 19 4 10 1019.0 1018.5 0.0
31/11:00am 23.8 20.3 -2.7 17 11.6 NE 6 13 3 7 1019.5 1019.0 0.0
31/10:30am 23.3 19.6 -3.1 17 11.5 NNE 7 13 4 7 1020.0 1019.5 0.0
31/10:00am 22.1 17.4 -1.9 20 10.5 E 13 19 7 10 1020.3 1019.8 0.0
31/09:30am 21.2 16.2 -1.3 22 9.9 E 15 20 8 11 1020.5 1020.0 0.0
31/09:00am 19.3 14.7 -1.2 25 8.9 E 13 15 7 8 1020.6 1020.1 0.0
31/08:30am 16.8 12.5 -1.3 29 7.7 E 11 15 6 8 1020.5 1020.0 0.0
31/08:00am 14.4 10.2 -1.2 34 6.5 ESE 11 13 6 7 1020.4 1019.9 0.0
31/07:30am 11.7 8.1 -1.8 39 5.4 E 7 13 4 7 1020.1 1019.6 0.0
31/07:00am 9.3 5.8 -1.7 46 4.3 ESE 7 9 4 5 1019.8 1019.3 0.0
31/06:30am 8.5 4.4 -2.7 45 4.2 ESE 9 13 5 7 1019.6 1019.1 0.0
31/06:00am 9.1 4.7 -2.8 43 4.5 SE 11 13 6 7 1019.4 1018.9 0.0
31/05:30am 10.8 5.3 -2.2 40 5.1 SE 17 20 9 11 1019.1 1018.6 0.0
31/05:00am 9.3 4.9 -2.6 43 4.5 SE 11 13 6 7 1019.1 1018.6 0.0
31/04:30am 9.4 5.0 -2.5 43 4.5 SE 11 13 6 7 1019.0 1018.5 0.0
31/04:00am 9.8 5.4 -2.8 41 4.8 SE 11 15 6 8 1018.9 1018.4 0.0
31/03:30am 10.0 5.5 -3.0 40 5.0 SE 11 13 6 7 1018.9 1018.4 0.0
31/03:00am 10.0 5.5 -3.0 40 4.9 SE 11 13 6 7 1018.8 1018.3 0.0
31/02:30am 10.1 5.6 -3.2 39 5.0 SE 11 13 6 7 1018.8 1018.3 0.0
31/02:00am 10.1 5.9 -3.6 38 5.1 SSE 9 11 5 6 1019.1 1018.6 0.0
31/01:30am 10.6 6.4 -3.8 36 5.4 SSE 9 11 5 6 1019.3 1018.8 0.0
31/01:00am 11.1 6.9 -3.8 35 5.6 SSE 9 11 5 6 1019.3 1018.8 0.0
31/12:30am 11.8 7.3 -3.5 34 5.9 SE 11 13 6 7 1019.4 1018.9 0.0
31/12:00am 12.4 8.3 -3.4 33 6.1 SSE 9 13 5 7 1019.5 1019.0 0.0
 
Date/Time
EST
Temp
°C
App
Temp
°C
Dew
Point
Rel
Hum
%
Delta-T
°C
Wind Press
QNH
hPa
Press
MSL
hPa
Rain
since 9 am
mm
Dir
 
Spd
km/h
Gust
km/h
Spd
kts
Gust
kts
30/11:30pm 13.0 8.5 -3.3 32 6.4 SSE 11 13 6 7 1019.6 1019.1 0.0
30/11:00pm 14.0 9.9 -3.3 30 6.8 SE 9 11 5 6 1019.6 1019.1 0.0
30/10:30pm 14.6 10.5 -2.8 30 7.0 SSE 9 11 5 6 1019.4 1018.9 0.0
30/10:00pm 15.7 11.3 -2.7 28 7.5 SSE 11 13 6 7 1019.4 1018.9 0.0
30/09:30pm 16.3 11.9 -2.2 28 7.7 SSE 11 13 6 7 1019.2 1018.7 0.0
30/09:00pm 17.1 12.8 -1.5 28 7.9 S 11 15 6 8 1019.3 1018.8 0.0
30/08:30pm 17.3 13.0 -1.4 28 8.0 SSE 11 13 6 7 1019.1 1018.6 0.0
30/08:00pm 16.4 12.2 -0.8 31 7.3 S 11 13 6 7 1018.9 1018.4 0.0
30/07:30pm 16.8 13.3 -1.3 29 7.7 SE 7 9 4 5 1018.6 1018.1 0.0
30/07:00pm 20.0 16.1 -1.2 24 9.3 SSE 9 11 5 6 1018.3 1017.8 0.0
30/06:30pm 21.3 17.3 -1.9 21 10.1 SSE 9 9 5 5 1018.1 1017.6 0.0
30/06:00pm 22.8 19.2 -2.0 19 10.9 S 7 9 4 5 1017.9 1017.4 0.0
30/05:30pm 24.3 20.0 -1.5 18 11.6 S 11 20 6 11 1017.6 1017.1 0.0
30/05:00pm 25.0 19.9 -1.7 17 12.0 SSW 15 22 8 12 1017.6 1017.1 0.0
30/04:30pm 25.3 20.0 -0.7 18 12.0 SSW 17 20 9 11 1017.5 1017.0 0.0
30/04:00pm 25.8 22.1 -0.3 18 12.2 SW 9 28 5 15 1017.5 1017.0 0.0
30/03:30pm 24.9 21.1 -1.0 18 11.9 S 9 15 5 8 1017.7 1017.3 0.0
30/03:00pm 25.4 20.9 -0.6 18 12.0 S 13 28 7 15 1018.0 1017.5 0.0
30/02:30pm 25.2 21.3 -1.6 17 12.2 SSW 9 19 5 10 1018.5 1018.0 0.0
30/02:00pm 24.4 20.2 -0.7 19 11.5 SSE 11 17 6 9 1019.0 1018.5 0.0
30/01:30pm 24.8 20.5 1.0 21 11.3 SE 13 20 7 11 1019.4 1018.9 0.0
30/01:00pm 24.0 20.5 1.0 22 10.8 W 9 15 5 8 1020.0 1019.5 0.0
30/12:30pm 24.2 20.4 1.8 23 10.7 SSE 11 20 6 11 1020.6 1020.1 0.0
30/12:00pm 23.3 19.8 1.0 23 10.4 ENE 9 19 5 10 1021.2 1020.8 0.0
30/11:30am 22.8 18.9 1.2 24 10.1 ENE 11 15 6 8 1021.9 1021.4 0.0
30/11:00am 22.2 18.7 1.3 25 9.7 NE 9 19 5 10 1022.4 1021.9 0.0
30/10:30am 21.6 17.0 1.3 26 9.5 E 15 22 8 12 1022.8 1022.3 0.0
30/10:00am 20.4 15.3 0.8 27 8.9 E 17 22 9 12 1023.1 1022.6 0.0
30/09:30am 20.0 15.0 1.4 29 8.6 ESE 17 24 9 13 1023.1 1022.6 0.0
30/09:00am 18.0 12.9 0.6 31 7.7 ESE 17 24 9 13 1023.1 1022.6 0.0
30/08:30am 16.9 11.8 1.0 34 7.1 ESE 17 24 9 13 1023.0 1022.5 0.0
30/08:00am 14.9 9.9 1.1 39 6.0 SE 17 22 9 12 1022.6 1022.1 0.0
30/07:30am 12.6 8.3 1.3 46 4.9 SE 13 17 7 9 1022.1 1021.6 0.0
30/07:00am 10.4 6.5 1.0 52 3.9 SSE 11 13 6 7 1021.9 1021.4 0.0
30/06:30am 10.1 6.6 1.0 53 3.8 SE 9 13 5 7 1021.7 1021.2 0.0
30/06:00am 10.7 6.4 1.0 51 4.1 SE 13 15 7 8 1021.3 1020.9 0.0
30/05:30am 11.1 6.8 1.1 50 4.2 SE 13 15 7 8 1021.1 1020.7 0.0
30/05:00am 11.4 7.1 1.1 49 4.4 SE 13 19 7 10 1020.9 1020.5 0.0
30/04:30am 11.8 7.5 1.2 48 4.5 SSE 13 17 7 9 1020.8 1020.4 0.0
30/04:00am 12.2 7.9 1.2 47 4.7 SSE 13 17 7 9 1020.7 1020.2 0.0
30/03:30am 12.7 8.4 1.1 45 5.0 SSE 13 17 7 9 1020.8 1020.4 0.0
30/03:00am 13.3 9.0 1.3 44 5.2 SSE 13 17 7 9 1020.8 1020.4 0.0
30/02:30am 13.6 9.3 1.3 43 5.4 SSE 13 17 7 9 1020.9 1020.5 0.0
30/02:00am 13.4 9.1 1.1 43 5.3 SSE 13 17 7 9 1021.0 1020.6 0.0
30/01:30am 13.5 9.3 1.5 44 5.2 SSE 13 17 7 9 1020.9 1020.5 0.0
30/01:00am 13.4 9.5 1.1 43 5.3 SSE 11 15 6 8 1021.0 1020.6 0.0
30/12:30am 14.2 9.9 0.8 40 5.8 SSE 13 17 7 9 1021.1 1020.7 0.0
30/12:00am 15.0 10.3 0.8 38 6.2 SSE 15 20 8 11 1021.0 1020.6 0.0
 
Date/Time
EST
Temp
°C
App
Temp
°C
Dew
Point
Rel
Hum
%
Delta-T
°C
Wind Press
QNH
hPa
Press
MSL
hPa
Rain
since 9 am
mm
Dir
 
Spd
km/h
Gust
km/h
Spd
kts
Gust
kts
29/11:30pm 15.4 10.7 0.8 37 6.4 SSE 15 19 8 10 1020.9 1020.5 0.0
29/11:00pm 16.0 11.6 0.6 35 6.7 SSE 13 19 7 10 1021.1 1020.7 0.0
29/10:30pm 16.4 12.0 0.5 34 7.0 SSE 13 19 7 10 1021.0 1020.6 0.0
29/10:00pm 17.0 12.6 0.6 33 7.2 SSE 13 17 7 9 1020.9 1020.5 0.0
29/09:30pm 17.0 12.6 0.6 33 7.3 SSE 13 17 7 9 1020.9 1020.5 0.0
29/09:00pm 16.8 12.7 0.0 32 7.3 SSE 11 15 6 8 1021.1 1020.7 0.0
29/08:30pm 17.6 13.8 -0.6 29 7.9 SSE 9 11 5 6 1021.1 1020.7 0.0
29/08:00pm 18.5 14.3 -0.8 27 8.4 SSE 11 13 6 7 1020.8 1020.4 0.0
29/07:30pm 19.1 14.8 -1.4 25 8.9 SSE 11 13 6 7 1020.6 1020.1 0.0
29/07:00pm 20.4 16.5 -1.4 23 9.5 SSE 9 9 5 5 1020.3 1019.8 0.0
29/06:30pm 21.6 17.0 -1.0 22 10.1 SSE 13 17 7 9 1020.1 1019.6 0.0
29/06:00pm 23.0 18.5 -0.5 21 10.7 SSE 13 17 7 9 1019.8 1019.3 0.0
29/05:30pm 24.1 19.2 -0.2 20 11.2 SSE 15 20 8 11 1019.6 1019.1 0.0
29/05:00pm 24.7 20.9 -0.4 19 11.6 SE 9 20 5 11 1019.3 1018.8 0.0
29/04:30pm 24.7 20.1 -1.2 18 11.8 SE 13 19 7 10 1019.3 1018.8 0.0
29/04:00pm 25.1 19.2 -0.9 18 11.9 E 20 24 11 13 1019.3 1018.8 0.0
29/03:30pm 24.9 20.8 -0.3 19 11.7 SE 11 19 6 10 1019.5 1019.0 0.0
29/03:00pm 24.7 21.1 0.3 20 11.4 E 9 17 5 9 1019.7 1019.2 0.0
29/02:30pm 24.3 20.6 -0.1 20 11.3 SSE 9 17 5 9 1019.9 1019.4 0.0
29/02:00pm 24.1 19.7 0.4 21 11.0 SSE 13 20 7 11 1020.1 1019.6 0.0
29/01:30pm 24.0 20.5 1.0 22 10.9 ENE 9 15 5 8 1020.6 1020.1 0.0
29/01:00pm 23.7 19.8 1.4 23 10.5 ENE 11 19 6 10 1021.2 1020.8 0.0
29/12:30pm 22.9 19.8 1.3 24 10.2 S 7 17 4 9 1021.9 1021.4 0.0
29/12:00pm 23.6 20.4 3.0 26 10.0 SW 9 17 5 9 1022.3 1021.8 0.0
29/11:30am 21.8 17.9 0.9 25 9.7 SSE 11 22 6 12 1022.9 1022.4 0.0
29/11:00am 21.6 17.4 3.8 31 8.7 ESE 15 24 8 13 1023.4 1022.9 0.0
29/10:30am 20.8 15.7 4.0 33 8.2 SE 20 30 11 16 1023.9 1023.5 0.0
29/10:00am 20.6 14.5 5.0 36 7.7 ESE 26 35 14 19 1024.1 1023.7 0.0
29/09:30am 19.1 12.6 4.8 39 7.0 ESE 28 37 15 20 1024.1 1023.7 0.0
29/09:00am 18.3 12.7 5.5 43 6.3 ESE 24 32 13 17 1024.1 1023.7 0.0
29/08:30am 16.4 11.0 4.4 45 5.7 ESE 22 30 12 16 1024.1 1023.7 0.0
29/08:00am 13.9 9.1 2.8 47 5.0 SE 17 20 9 11 1024.0 1023.6 0.0
29/07:30am 11.1 6.9 1.4 51 4.1 SSE 13 19 7 10 1023.7 1023.2 0.0
29/07:00am 7.6 3.8 -0.4 57 3.1 SSE 9 11 5 6 1023.4 1022.9 0.0
29/06:30am 6.9 3.1 -1.0 57 3.0 SSE 9 11 5 6 1023.1 1022.6 0.0
29/06:00am 6.2 2.7 -1.2 59 2.8 S 7 9 4 5 1022.8 1022.3 0.0
29/05:30am 6.5 2.9 -1.9 55 3.2 SSE 7 7 4 4 1022.5 1022.0 0.0
29/05:00am 8.1 4.7 -2.0 49 3.8 E 6 6 3 3 1022.3 1021.8 0.0
29/04:30am 9.2 5.3 -1.8 46 4.3 SSE 9 13 5 7 1022.0 1021.5 0.0
29/04:00am 9.3 4.9 -2.3 44 4.4 SE 11 15 6 8 1021.9 1021.4 0.0
29/03:30am 10.8 6.8 -2.2 40 5.1 SE 9 15 5 8 1022.0 1021.5 0.0
29/03:00am 11.1 6.8 -1.6 41 5.0 SSE 11 15 6 8 1021.9 1021.4 0.0
29/02:30am 10.2 5.8 -2.4 41 4.9 SSE 11 13 6 7 1022.3 1021.8 0.0
29/02:00am 10.2 6.1 -2.8 40 5.0 SSE 9 11 5 6 1022.6 1022.1 0.0
29/01:30am 11.3 6.9 -2.8 37 5.5 SSE 11 13 6 7 1022.7 1022.2 0.0
29/01:00am 12.4 7.9 -3.0 34 6.0 SSE 11 15 6 8 1022.8 1022.3 0.0
29/12:30am 13.5 8.7 -2.8 32 6.5 SSE 13 19 7 10 1022.9 1022.4 0.0
29/12:00am 14.0 9.1 -3.3 30 6.8 SSE 13 19 7 10 1022.9 1022.4 0.0
 
Date/Time
EST
Temp
°C
App
Temp
°C
Dew
Point
Rel
Hum
%
Delta-T
°C
Wind Press
QNH
hPa
Press
MSL
hPa
Rain
since 9 am
mm
Dir
 
Spd
km/h
Gust
km/h
Spd
kts
Gust
kts
28/11:30pm 14.3 9.4 -3.0 30 6.9 SSE 13 19 7 10 1022.9 1022.4 0.0
28/11:00pm 14.7 9.8 -3.1 29 7.1 SSE 13 17 7 9 1022.8 1022.3 0.0
28/10:30pm 15.2 10.3 -3.2 28 7.4 S 13 19 7 10 1022.8 1022.3 0.0
28/10:00pm 15.6 10.8 -2.3 29 7.3 S 13 17 7 9 1022.8 1022.3 0.0
28/09:30pm 15.0 10.8 -1.1 33 6.7 S 11 13 6 7 1022.7 1022.2 0.0
28/09:00pm 15.7 12.0 -0.1 34 6.8 S 9 13 5 7 1022.6 1022.1 0.0
28/08:30pm 16.0 12.3 0.2 34 6.9 SSE 9 13 5 7 1022.4 1021.9 0.0
28/08:00pm 17.0 13.3 0.2 32 7.3 SSE 9 13 5 7 1022.1 1021.6 0.0
28/07:30pm 17.9 13.9 0.6 31 7.7 SSE 11 13 6 7 1021.5 1021.1 0.0
28/07:00pm 18.9 14.9 0.5 29 8.2 S 11 13 6 7 1021.0 1020.6 0.0
28/06:30pm 20.2 16.2 0.6 27 8.9 SSE 11 17 6 9 1020.7 1020.2 0.0
28/06:00pm 21.4 16.3 0.6 25 9.5 S 17 24 9 13 1020.4 1019.9 0.0
28/05:30pm 22.5 16.9 -0.3 22 10.4 S 19 28 10 15 1020.3 1019.8 0.0
28/05:00pm 23.2 17.4 -0.3 21 10.7 S 20 28 11 15 1020.1 1019.6 0.0
28/04:30pm 23.4 16.1 -3.0 17 11.5 S 26 33 14 18 1019.9 1019.4 0.0
28/04:00pm 23.9 16.5 -0.4 20 11.1 SSW 28 37 15 20 1019.6 1019.1 0.0
28/03:30pm 23.6 17.4 -0.6 20 11.0 SSE 22 33 12 18 1019.7 1019.2 0.0
28/03:00pm 23.6 17.8 0.0 21 10.9 SSE 20 37 11 20 1020.0 1019.5 0.0
28/02:30pm 23.8 17.8 0.8 22 10.8 S 22 37 12 20 1020.2 1019.7 0.0
28/02:00pm 23.9 17.5 0.9 22 10.8 SSE 24 35 13 19 1020.5 1020.0 0.0
28/01:30pm 23.8 17.5 1.4 23 10.6 SSE 24 35 13 19 1020.8 1020.4 0.0
28/01:00pm 23.1 16.3 3.1 27 9.7 S 28 35 15 19 1021.2 1020.8 0.0
28/12:30pm 22.6 16.1 2.7 27 9.6 SE 26 37 14 20 1021.8 1021.3 0.0

Other Formats:

Comma delimited format used in spreadsheet applications
http://www.bom.gov.au/fwo/IDQ60801/IDQ60801.95351.axf

JavaScript Object Notation format (JSON) in row-major order
http://www.bom.gov.au/fwo/IDQ60801/IDQ60801.95351.json